Time;durP1;ratioP1;P1;durP2;ratioP2;P2;SDS_P1;SDS_P2;PMS_P1;PMS_P2;Temp;Humidity;BMP_temperature;BMP_pressure;BME280_temperature;BME280_humidity;BME280_pressure;Samples;Min_cycle;Max_cycle;Signal;HPM_P1;HPM_P2
2024/04/17 00:00:37;;;;;;;12.00;6.00;;;;;;;17.37;62.86;98472.52;108059;1256;70037;-66
2024/04/17 00:03:04;;;;;;;8.60;6.60;;;;;;;17.27;63.14;98466.58;108024;1253;59384;-66
2024/04/17 00:05:31;;;;;;;9.10;6.90;;;;;;;17.24;62.67;98484.41;108040;1253;61956;-66
2024/04/17 00:07:57;;;;;;;10.20;6.60;;;;;;;17.00;61.67;98503.37;108051;1253;61124;-67
2024/04/17 00:10:24;;;;;;;10.10;6.00;;;;;;;17.01;60.99;98545.80;108050;1253;74057;-66
2024/04/17 00:12:50;;;;;;;8.20;5.20;;;;;;;16.98;59.80;98573.42;108060;1253;61784;-66
2024/04/17 00:15:17;;;;;;;9.60;5.50;;;;;;;16.85;58.90;98563.50;108002;1252;72847;-66
2024/04/17 00:17:43;;;;;;;11.50;5.60;;;;;;;16.70;57.97;98528.11;108059;1253;61086;-67
2024/04/17 00:20:10;;;;;;;7.00;4.10;;;;;;;16.60;57.34;98508.65;108040;1255;61116;-66
2024/04/17 00:22:36;;;;;;;4.80;3.60;;;;;;;16.50;56.21;98502.92;108122;1253;61189;-66
2024/04/17 00:25:03;;;;;;;5.70;3.20;;;;;;;16.31;55.80;98482.11;108140;1253;70416;-66
2024/04/17 00:27:31;;;;;;;9.80;3.10;;;;;;;16.24;55.79;98460.95;108086;1253;71688;-66
2024/04/17 00:29:57;;;;;;;3.80;3.10;;;;;;;16.08;56.08;98470.15;108072;1253;61335;-66
2024/04/17 00:32:24;;;;;;;3.60;3.30;;;;;;;16.02;55.93;98476.83;108099;1253;61117;-66
2024/04/17 00:34:50;;;;;;;4.50;3.00;;;;;;;16.02;55.85;98461.94;108086;1257;74654;-66
2024/04/17 00:37:17;;;;;;;5.10;2.70;;;;;;;15.97;55.90;98469.66;107986;1254;70275;-66
2024/04/17 00:39:44;;;;;;;4.00;2.70;;;;;;;15.88;55.87;98460.85;108017;1254;72703;-66
2024/04/17 00:42:10;;;;;;;6.90;2.60;;;;;;;15.78;56.09;98462.73;108028;1254;61871;-66
2024/04/17 00:44:37;;;;;;;3.30;2.70;;;;;;;15.86;55.85;98460.17;108059;1256;60507;-66
2024/04/17 00:47:05;;;;;;;7.40;3.00;;;;;;;15.87;56.02;98460.63;107972;1256;73217;-65
2024/04/17 00:49:32;;;;;;;5.00;2.70;;;;;;;15.76;56.45;98467.70;107915;1254;69633;-65
2024/04/17 00:51:59;;;;;;;5.60;2.70;;;;;;;15.56;56.82;98476.48;107941;1254;72622;-65
2024/04/17 00:54:25;;;;;;;6.50;2.60;;;;;;;15.57;56.98;98477.41;107880;1254;61285;-66
2024/04/17 00:56:52;;;;;;;7.80;2.70;;;;;;;15.58;56.89;98482.80;107987;1254;61251;-66
2024/04/17 00:59:18;;;;;;;3.90;2.60;;;;;;;15.56;56.98;98511.47;107983;1254;61142;-65
2024/04/17 01:01:45;;;;;;;4.10;2.60;;;;;;;15.59;57.09;98538.84;107954;1254;61245;-66
2024/04/17 01:04:11;;;;;;;5.50;2.30;;;;;;;15.57;56.88;98547.26;107995;1254;71252;-66
2024/04/17 01:06:39;;;;;;;4.90;2.80;;;;;;;15.55;56.97;98548.84;107927;1254;61092;-65
2024/04/17 01:09:06;;;;;;;5.70;3.10;;;;;;;15.48;57.04;98523.84;107975;1254;61255;-66
2024/04/17 01:11:39;;;;;;;5.40;2.80;;;;;;;15.47;57.11;98538.58;107905;1256;74713;-65
2024/04/17 01:14:07;;;;;;;4.30;2.70;;;;;;;15.43;57.34;98558.31;108011;1254;68951;-66
2024/04/17 01:16:35;;;;;;;4.20;2.50;;;;;;;15.34;57.68;98526.73;108005;1254;71146;-66
2024/04/17 01:19:01;;;;;;;3.90;2.90;;;;;;;15.40;57.43;98471.45;107910;1254;61027;-66
2024/04/17 01:21:28;;;;;;;4.70;2.80;;;;;;;15.45;57.15;98458.78;108028;1254;60268;-65
2024/04/17 01:23:55;;;;;;;7.30;2.80;;;;;;;15.47;57.27;98458.78;107987;1254;61133;-66
2024/04/17 01:26:21;;;;;;;4.60;2.90;;;;;;;15.49;57.50;98445.41;107945;1254;68399;-66
2024/04/17 01:28:48;;;;;;;7.10;2.60;;;;;;;15.47;57.64;98442.17;107963;1256;72771;-65
2024/04/17 01:31:15;;;;;;;5.20;2.70;;;;;;;15.49;57.77;98447.19;108103;1254;61464;-68
2024/04/17 01:33:42;;;;;;;3.70;2.90;;;;;;;15.44;57.87;98453.41;107888;1254;61154;-66
2024/04/17 01:36:08;;;;;;;5.00;2.90;;;;;;;15.41;57.83;98440.77;107915;1257;61111;-65
2024/04/17 01:38:35;;;;;;;3.90;2.80;;;;;;;15.45;57.78;98434.88;108070;1254;61244;-66
2024/04/17 01:41:01;;;;;;;4.10;2.70;;;;;;;15.65;57.28;98428.45;108068;1253;61144;-66
2024/04/17 01:43:30;;;;;;;3.70;3.10;;;;;;;15.55;57.67;98435.84;108044;1253;61025;-66
2024/04/17 01:45:56;;;;;;;4.10;3.20;;;;;;;15.49;57.92;98413.36;108103;1253;61114;-66
2024/04/17 01:48:23;;;;;;;4.40;2.80;;;;;;;15.44;58.11;98390.84;108129;1257;74513;-66
2024/04/17 01:50:50;;;;;;;4.70;3.30;;;;;;;15.48;58.06;98408.00;108071;1253;70131;-66
2024/04/17 01:53:17;;;;;;;3.90;3.00;;;;;;;15.45;58.15;98414.74;108011;1253;73207;-64
2024/04/17 01:55:44;;;;;;;3.50;3.00;;;;;;;15.44;58.32;98410.58;108127;1253;60333;-66
2024/04/17 01:58:10;;;;;;;6.30;3.10;;;;;;;15.48;58.38;98399.32;108089;1253;61190;-65
2024/04/17 02:00:37;;;;;;;3.30;2.80;;;;;;;15.57;57.94;98392.89;108110;1253;73374;-66
2024/04/17 02:03:04;;;;;;;5.40;3.40;;;;;;;15.47;58.30;98382.00;108057;1256;61205;-67
2024/04/17 02:05:31;;;;;;;4.80;3.00;;;;;;;15.50;58.29;98364.63;108059;1253;72526;-66
2024/04/17 02:07:57;;;;;;;4.70;2.90;;;;;;;15.46;58.44;98366.20;108018;1256;61134;-66
2024/04/17 02:10:24;;;;;;;3.30;2.90;;;;;;;15.45;58.57;98401.29;108084;1253;61267;-65
2024/04/17 02:12:51;;;;;;;4.00;3.10;;;;;;;15.45;58.42;98404.83;108132;1253;74659;-65
2024/04/17 02:15:17;;;;;;;3.00;2.70;;;;;;;15.29;58.87;98402.27;108108;1253;61248;-65
2024/04/17 02:17:43;;;;;;;4.90;2.60;;;;;;;15.34;58.74;98398.17;108078;1253;61059;-65
2024/04/17 02:20:10;;;;;;;4.00;2.80;;;;;;;15.45;58.48;98393.36;108102;1253;61218;-66
2024/04/17 02:22:37;;;;;;;4.30;2.70;;;;;;;15.57;58.26;98391.45;108058;1253;59781;-66
2024/04/17 02:25:04;;;;;;;4.30;3.10;;;;;;;15.54;58.28;98396.34;108067;1253;61079;-65
2024/04/17 02:27:30;;;;;;;4.20;2.80;;;;;;;15.45;58.47;98396.56;108157;1253;70295;-65
2024/04/17 02:29:57;;;;;;;4.00;2.80;;;;;;;15.34;58.85;98407.55;108115;1253;61081;-66
2024/04/17 02:32:23;;;;;;;5.10;2.60;;;;;;;15.22;59.30;98407.47;108122;1252;61200;-66
2024/04/17 02:34:50;;;;;;;3.40;2.70;;;;;;;15.35;58.98;98407.59;108157;1253;61368;-67
2024/04/17 02:37:17;;;;;;;3.30;2.50;;;;;;;15.43;58.87;98412.83;108090;1253;75179;-65
2024/04/17 02:39:43;;;;;;;3.00;2.70;;;;;;;15.47;58.64;98420.39;108132;1253;70246;-65
2024/04/17 02:42:10;;;;;;;3.20;2.60;;;;;;;15.59;58.50;98424.02;108096;1257;72836;-67
2024/04/17 02:44:36;;;;;;;4.90;2.80;;;;;;;15.56;58.38;98424.02;108070;1253;61244;-65
2024/04/17 02:47:03;;;;;;;3.90;2.80;;;;;;;15.46;58.70;98422.62;108039;1253;61117;-66
2024/04/17 02:49:30;;;;;;;3.80;2.80;;;;;;;15.46;58.62;98424.60;108091;1253;74688;-66
2024/04/17 02:51:56;;;;;;;3.80;2.80;;;;;;;15.59;58.25;98419.75;108026;1253;70387;-66
2024/04/17 02:54:23;;;;;;;7.30;3.20;;;;;;;15.66;58.16;98419.48;108043;1253;61114;-65
2024/04/17 02:56:49;;;;;;;4.30;3.10;;;;;;;15.57;58.27;98416.44;108009;1253;61224;-64
2024/04/17 02:59:16;;;;;;;3.30;3.00;;;;;;;15.49;58.57;98417.61;108059;1253;61243;-64
2024/04/17 03:01:42;;;;;;;5.10;3.70;;;;;;;15.41;58.65;98425.91;108052;1253;61218;-64
2024/04/17 03:04:09;;;;;;;4.50;3.40;;;;;;;15.50;58.30;98425.28;108165;1253;61133;-65
2024/04/17 03:06:36;;;;;;;5.70;3.10;;;;;;;15.55;58.00;98430.73;108069;1257;72666;-66
2024/04/17 03:09:03;;;;;;;4.10;3.00;;;;;;;15.50;58.06;98436.11;108028;1253;61176;-65
2024/04/17 03:11:30;;;;;;;4.40;3.40;;;;;;;15.34;58.21;98442.20;108035;1257;61352;-66
2024/04/17 03:13:56;;;;;;;4.00;3.10;;;;;;;15.34;58.13;98454.59;108075;1253;61131;-66
2024/04/17 03:16:23;;;;;;;4.70;3.10;;;;;;;15.36;58.14;98463.41;108036;1253;70083;-66
2024/04/17 03:18:50;;;;;;;6.30;3.30;;;;;;;15.36;57.93;98472.84;107916;1254;71535;-66
2024/04/17 03:21:16;;;;;;;6.20;3.20;;;;;;;15.40;57.64;98477.75;108095;1253;61220;-66
2024/04/17 03:23:43;;;;;;;7.70;3.50;;;;;;;15.48;57.24;98473.41;108057;1253;61071;-65
2024/04/17 03:26:09;;;;;;;5.30;3.00;;;;;;;15.38;57.39;98483.08;108036;1253;74702;-67
2024/04/17 03:28:36;;;;;;;3.70;3.40;;;;;;;15.23;57.49;98495.28;108087;1257;70427;-66
2024/04/17 03:31:03;;;;;;;3.30;3.00;;;;;;;15.10;57.76;98499.89;108083;1253;61117;-66
2024/04/17 03:33:29;;;;;;;4.50;3.30;;;;;;;15.19;57.49;98514.88;108088;1253;61470;-66
2024/04/17 03:35:57;;;;;;;5.60;3.20;;;;;;;15.21;57.33;98526.17;108089;1256;60107;-66
2024/04/17 03:38:26;;;;;;;3.40;3.10;;;;;;;15.17;57.46;98529.00;108116;1252;74479;-65
2024/04/17 03:40:54;;;;;;;3.60;3.20;;;;;;;15.14;57.51;98531.38;108105;1253;68887;-66
2024/04/17 03:43:21;;;;;;;4.40;3.20;;;;;;;15.05;57.68;98539.52;108078;1253;72479;-65
2024/04/17 03:45:47;;;;;;;6.40;3.00;;;;;;;15.10;57.62;98547.91;108134;1253;61154;-66
2024/04/17 03:48:14;;;;;;;4.30;3.00;;;;;;;15.15;57.44;98552.52;108116;1253;61155;-65
2024/04/17 03:50:41;;;;;;;4.20;3.00;;;;;;;15.15;57.37;98551.81;108201;1253;75221;-65
2024/04/17 03:53:07;;;;;;;6.10;3.50;;;;;;;15.11;57.54;98554.02;108167;1253;70694;-66
2024/04/17 03:55:34;;;;;;;5.10;2.90;;;;;;;15.08;57.43;98558.02;108149;1253;73096;-65
2024/04/17 03:58:00;;;;;;;3.10;2.60;;;;;;;15.02;57.35;98569.65;108151;1253;61572;-66
2024/04/17 04:00:27;;;;;;;4.50;2.90;;;;;;;15.06;57.25;98583.10;108136;1252;61097;-66
2024/04/17 04:02:54;;;;;;;3.80;2.80;;;;;;;15.11;57.06;98592.58;108176;1255;75113;-65
2024/04/17 04:05:21;;;;;;;4.40;2.80;;;;;;;15.08;57.01;98595.14;108135;1253;70440;-66
2024/04/17 04:07:47;;;;;;;5.30;2.50;;;;;;;15.08;56.81;98588.42;108177;1252;71316;-66
2024/04/17 04:10:14;;;;;;;5.70;2.80;;;;;;;15.14;56.76;98588.30;108141;1256;60464;-65
2024/04/17 04:12:41;;;;;;;5.10;2.60;;;;;;;15.17;56.55;98568.39;108145;1252;61180;-65
2024/04/17 04:15:09;;;;;;;3.50;2.30;;;;;;;15.16;56.36;98547.25;108139;1257;75508;-65
2024/04/17 04:17:36;;;;;;;5.70;2.90;;;;;;;15.15;56.33;98542.75;108154;1253;69273;-65
2024/04/17 04:20:03;;;;;;;5.90;2.60;;;;;;;15.19;55.99;98544.55;108161;1253;72667;-65
2024/04/17 04:22:30;;;;;;;5.50;2.90;;;;;;;15.20;56.08;98538.63;108128;1253;61069;-66
2024/04/17 04:24:57;;;;;;;4.20;2.60;;;;;;;15.16;56.00;98533.36;108183;1253;61417;-67
2024/04/17 04:27:23;;;;;;;3.70;2.40;;;;;;;15.11;55.92;98528.05;108127;1253;61088;-66
2024/04/17 04:29:50;;;;;;;5.10;2.50;;;;;;;15.16;56.06;98523.05;108129;1253;61092;-66
2024/04/17 04:32:16;;;;;;;5.20;2.90;;;;;;;15.35;55.52;98515.83;108089;1253;61189;-66
2024/04/17 04:34:43;;;;;;;3.80;2.70;;;;;;;15.38;55.41;98506.61;108105;1253;61132;-66
2024/04/17 04:37:09;;;;;;;5.00;2.80;;;;;;;15.45;55.18;98500.55;108111;1253;61211;-66
2024/04/17 04:39:36;;;;;;;9.00;3.30;;;;;;;15.43;55.12;98496.48;108109;1253;61360;-66
2024/04/17 04:42:03;;;;;;;9.30;4.10;;;;;;;15.25;55.53;98493.89;108110;1253;61109;-66
2024/04/17 04:44:30;;;;;;;6.20;2.90;;;;;;;15.13;55.84;98486.74;108116;1255;72736;-66
2024/04/17 04:46:57;;;;;;;3.80;3.30;;;;;;;15.14;56.01;98480.80;108140;1253;61422;-65
2024/04/17 04:49:24;;;;;;;4.20;3.20;;;;;;;15.20;55.88;98475.14;108209;1253;61209;-66
2024/04/17 04:51:51;;;;;;;8.50;3.30;;;;;;;15.26;55.87;98474.90;108196;1253;74900;-67
2024/04/17 04:54:17;;;;;;;4.30;3.10;;;;;;;15.31;55.56;98476.73;108181;1253;60972;-66
2024/04/17 04:56:44;;;;;;;5.10;3.10;;;;;;;15.25;55.75;98492.59;108176;1253;61307;-67
2024/04/17 04:59:10;;;;;;;3.80;3.10;;;;;;;15.19;55.97;98495.37;108145;1252;62004;-67
2024/04/17 05:01:37;;;;;;;9.30;4.10;;;;;;;15.33;55.86;98502.02;108091;1253;61246;-66
2024/04/17 05:04:04;;;;;;;4.50;3.30;;;;;;;15.39;55.70;98498.55;108098;1253;75090;-66
2024/04/17 05:06:31;;;;;;;4.60;3.00;;;;;;;15.47;55.61;98500.54;107999;1253;158939;-66
2024/04/17 05:10:34;;;;;;;3.90;3.20;;;;;;;16.03;56.20;98502.73;104907;1289;600895;-66
2024/04/17 05:13:02;;;;;;;9.60;3.90;;;;;;;17.56;50.88;98492.95;107305;1264;61575;-65
2024/04/17 05:15:29;;;;;;;3.60;3.00;;;;;;;17.70;50.13;98495.91;107954;1254;59279;-66
2024/04/17 05:17:56;;;;;;;5.80;3.20;;;;;;;17.33;50.73;98502.30;108001;1254;71829;-65
2024/04/17 05:20:25;;;;;;;5.60;3.00;;;;;;;17.26;50.84;98496.39;108030;1253;69923;-66
2024/04/17 05:22:52;;;;;;;5.70;3.60;;;;;;;17.20;50.85;98495.95;108031;1254;72483;-66
2024/04/17 05:25:22;;;;;;;5.40;2.70;;;;;;;17.24;50.73;98492.11;108109;1250;168271;-65
2024/04/17 05:27:49;;;;;;;7.40;3.30;;;;;;;17.28;50.38;98495.48;108214;1251;59465;-65
2024/04/17 05:30:17;;;;;;;4.80;3.00;;;;;;;16.86;51.19;98504.97;108015;1252;73147;-65
2024/04/17 05:32:47;;;;;;;4.10;2.50;;;;;;;17.00;50.76;98504.08;108017;1254;70458;-65
2024/04/17 05:35:15;;;;;;;5.10;2.30;;;;;;;16.93;50.71;98520.79;107984;1253;72629;-66
2024/04/17 05:37:42;;;;;;;4.50;2.90;;;;;;;16.83;51.01;98529.48;108129;1253;60375;-66
2024/04/17 05:40:10;;;;;;;5.10;2.40;;;;;;;16.58;51.25;98528.98;108097;1252;60216;-66
2024/04/17 05:42:37;;;;;;;6.40;2.80;;;;;;;16.72;50.98;98528.57;108085;1253;72875;-65
2024/04/17 05:45:04;;;;;;;5.90;3.70;;;;;;;16.68;50.85;98527.27;108185;1257;70291;-66
2024/04/17 05:47:32;;;;;;;5.40;3.30;;;;;;;16.72;50.74;98526.72;108003;1254;72543;-65
2024/04/17 05:50:00;;;;;;;4.80;3.20;;;;;;;16.64;50.81;98527.05;108006;1253;60443;-66
2024/04/17 05:52:32;;;;;;;7.20;3.80;;;;;;;16.59;50.91;98535.65;108106;1252;60038;-66
2024/04/17 05:54:59;;;;;;;11.20;3.70;;;;;;;16.69;50.90;98538.67;108000;1253;72456;-66
2024/04/17 05:57:27;;;;;;;8.50;3.50;;;;;;;16.43;51.60;98544.86;108119;1252;69651;-66
2024/04/17 05:59:54;;;;;;;4.60;3.00;;;;;;;16.46;51.59;98552.38;108033;1253;71396;-67
2024/04/17 06:02:21;;;;;;;3.60;2.60;;;;;;;16.57;51.60;98553.57;108121;1253;60401;-66
2024/04/17 06:04:49;;;;;;;5.40;2.30;;;;;;;16.62;51.54;98563.41;108072;1253;60438;-67
2024/04/17 06:07:16;;;;;;;5.60;2.40;;;;;;;16.62;51.50;98566.96;108142;1254;72688;-66
2024/04/17 06:09:43;;;;;;;5.50;2.50;;;;;;;16.64;51.56;98574.02;108137;1254;70429;-66
2024/04/17 06:12:11;;;;;;;6.00;2.80;;;;;;;16.63;51.52;98576.45;108130;1252;71521;-66
2024/04/17 06:14:38;;;;;;;3.40;2.60;;;;;;;16.71;51.40;98580.86;108106;1252;61317;-65
2024/04/17 06:17:05;;;;;;;3.20;2.80;;;;;;;16.59;51.73;98583.70;108123;1256;59227;-67
2024/04/17 06:19:33;;;;;;;6.00;2.50;;;;;;;16.52;51.84;98585.66;108069;1253;74470;-66
2024/04/17 06:22:01;;;;;;;6.50;2.70;;;;;;;16.54;51.97;98589.73;108078;1253;70434;-66
2024/04/17 06:24:28;;;;;;;5.30;2.60;;;;;;;16.42;52.25;98597.17;108132;1252;72782;-66
2024/04/17 06:26:55;;;;;;;6.20;2.70;;;;;;;16.42;52.52;98604.81;108132;1253;60394;-66
2024/04/17 06:29:23;;;;;;;4.40;3.00;;;;;;;16.46;52.41;98607.98;108074;1253;60516;-66
2024/04/17 06:31:50;;;;;;;7.10;2.90;;;;;;;16.59;52.36;98610.95;108073;1253;73429;-66
2024/04/17 06:34:17;;;;;;;6.20;3.00;;;;;;;16.63;52.30;98613.66;108138;1253;69992;-66
2024/04/17 06:36:45;;;;;;;3.60;2.70;;;;;;;16.72;52.12;98625.09;108053;1253;73874;-66
2024/04/17 06:39:13;;;;;;;4.80;2.90;;;;;;;16.70;51.92;98630.23;108008;1253;60270;-66
2024/04/17 06:41:40;;;;;;;3.30;2.80;;;;;;;16.48;52.19;98626.05;108084;1252;60197;-66
2024/04/17 06:44:23;;;;;;;5.10;3.20;;;;;;;16.49;52.42;98624.02;108030;1253;74997;-66
2024/04/17 06:46:50;;;;;;;3.80;2.40;;;;;;;16.66;52.13;98628.39;108011;1254;69320;-66
2024/04/17 06:49:18;;;;;;;5.00;2.90;;;;;;;16.54;52.44;98630.17;108075;1256;72123;-65
2024/04/17 06:51:45;;;;;;;7.80;2.70;;;;;;;16.52;52.53;98627.61;108153;1254;61802;-65
2024/04/17 06:54:12;;;;;;;8.70;3.30;;;;;;;16.58;52.51;98628.38;108190;1253;60093;-66
2024/04/17 06:56:40;;;;;;;5.70;3.10;;;;;;;16.39;52.82;98633.52;108042;1252;71640;-66
2024/04/17 06:59:07;;;;;;;6.90;3.00;;;;;;;16.33;53.09;98638.46;108058;1253;70630;-66
2024/04/17 07:01:35;;;;;;;4.20;2.80;;;;;;;16.33;53.09;98647.33;108080;1253;70457;-66
2024/04/17 07:04:04;;;;;;;2.90;2.40;;;;;;;16.28;53.27;98651.69;108046;1254;60280;-66
2024/04/17 07:06:31;;;;;;;4.90;3.00;;;;;;;16.44;53.15;98649.98;108159;1253;60332;-66
2024/04/17 07:09:00;;;;;;;8.00;2.90;;;;;;;16.42;53.31;98651.91;108056;1253;73770;-66
2024/04/17 07:11:27;;;;;;;4.10;2.80;;;;;;;16.52;53.07;98654.56;108200;1252;71589;-66
2024/04/17 07:13:55;;;;;;;3.70;2.80;;;;;;;16.58;53.13;98651.60;108109;1252;72732;-66
2024/04/17 07:16:22;;;;;;;5.90;3.00;;;;;;;16.57;53.16;98652.77;108059;1253;60966;-66
2024/04/17 07:18:50;;;;;;;3.20;2.80;;;;;;;16.48;53.41;98647.85;108011;1253;60288;-66
2024/04/17 07:21:17;;;;;;;3.40;2.50;;;;;;;16.45;53.39;98644.60;108050;1253;76069;-66
2024/04/17 07:23:44;;;;;;;3.50;2.60;;;;;;;16.48;53.27;98641.25;108084;1253;68990;-66
2024/04/17 07:26:12;;;;;;;4.10;2.50;;;;;;;16.54;53.23;98640.27;108102;1252;74903;-66
2024/04/17 07:28:39;;;;;;;4.50;2.70;;;;;;;16.48;53.26;98634.91;108037;1253;60989;-65
2024/04/17 07:31:06;;;;;;;5.40;2.70;;;;;;;16.41;53.51;98631.83;108099;1253;59175;-65
2024/04/17 07:33:34;;;;;;;4.00;2.50;;;;;;;16.50;53.36;98629.58;107976;1253;74112;-65
2024/04/17 07:36:02;;;;;;;2.50;2.30;;;;;;;16.46;53.17;98626.23;107991;1253;70635;-67
2024/04/17 07:38:30;;;;;;;4.90;2.90;;;;;;;16.42;53.27;98627.45;107988;1253;74031;-66
2024/04/17 07:40:58;;;;;;;5.00;3.00;;;;;;;16.59;53.11;98623.17;107982;1253;60518;-66
2024/04/17 07:43:30;;;;;;;3.60;2.70;;;;;;;16.64;52.86;98621.86;108065;1253;60438;-65
2024/04/17 07:45:58;;;;;;;4.10;2.80;;;;;;;16.68;52.74;98620.27;108096;1255;74019;-66
2024/04/17 07:48:26;;;;;;;3.70;2.80;;;;;;;16.48;52.94;98622.36;107998;1253;70464;-65
2024/04/17 07:50:53;;;;;;;4.20;2.30;;;;;;;16.49;52.96;98622.83;107978;1253;74792;-66
2024/04/17 07:53:21;;;;;;;5.60;2.40;;;;;;;16.59;52.89;98624.02;108014;1253;62872;-66
2024/04/17 07:55:48;;;;;;;3.00;2.40;;;;;;;16.74;52.68;98621.72;108061;1253;61268;-65
2024/04/17 07:58:15;;;;;;;3.20;2.10;;;;;;;16.81;52.16;98620.21;107975;1253;73888;-65
2024/04/17 08:00:43;;;;;;;2.90;2.30;;;;;;;16.87;51.94;98616.85;107992;1253;69542;-65
2024/04/17 08:03:11;;;;;;;8.20;2.20;;;;;;;17.02;51.48;98615.20;108062;1253;72974;-65
2024/04/17 08:05:39;;;;;;;4.40;2.20;;;;;;;17.16;51.37;98610.23;107989;1253;60300;-64
2024/04/17 08:08:06;;;;;;;2.60;2.10;;;;;;;17.19;51.24;98609.66;108013;1253;60802;-65
2024/04/17 08:10:34;;;;;;;5.60;2.50;;;;;;;17.24;50.91;98610.81;108062;1253;71902;-65
2024/04/17 08:13:11;;;;;;;6.10;2.40;;;;;;;17.28;50.43;98616.33;108072;1253;70572;-65
2024/04/17 08:15:42;;;;;;;2.80;2.30;;;;;;;17.12;50.57;98615.09;108034;1253;71627;-65
2024/04/17 08:18:10;;;;;;;3.20;2.60;;;;;;;16.97;51.10;98611.10;108045;1253;60939;-65
2024/04/17 08:20:37;;;;;;;5.20;3.10;;;;;;;16.93;51.38;98612.63;108045;1253;60297;-64
2024/04/17 08:23:05;;;;;;;4.70;3.00;;;;;;;16.88;50.96;98607.23;108046;1253;73013;-66
2024/04/17 08:25:32;;;;;;;3.80;3.10;;;;;;;16.77;51.27;98598.59;108078;1253;68378;-66
2024/04/17 08:27:59;;;;;;;4.10;3.00;;;;;;;16.76;51.50;98602.26;108047;1253;72799;-66
2024/04/17 08:30:27;;;;;;;5.30;2.70;;;;;;;16.79;51.68;98597.05;108017;1253;60474;-66
2024/04/17 08:32:55;;;;;;;4.00;2.50;;;;;;;16.83;51.53;98593.31;108028;1258;60297;-66
2024/04/17 08:35:22;;;;;;;3.90;2.70;;;;;;;16.87;51.48;98585.73;108068;1252;72626;-66
2024/04/17 08:37:50;;;;;;;3.00;2.30;;;;;;;16.85;51.14;98582.17;108147;1252;68218;-66
2024/04/17 08:40:17;;;;;;;4.10;2.50;;;;;;;16.95;50.84;98577.34;108061;1252;73338;-66
2024/04/17 08:42:52;;;;;;;3.60;2.20;;;;;;;16.92;50.41;98583.31;108175;1252;61104;-66
2024/04/17 08:45:35;;;;;;;6.00;2.80;;;;;;;16.96;50.21;98578.57;108097;1252;60182;-66
2024/04/17 08:48:16;;;;;;;5.80;2.60;;;;;;;17.13;50.20;98577.41;108107;1253;74268;-65
2024/04/17 08:50:44;;;;;;;2.70;2.20;;;;;;;17.16;50.19;98575.58;108064;1253;68851;-66
2024/04/17 08:53:11;;;;;;;5.20;3.00;;;;;;;17.40;49.93;98577.77;108015;1256;72734;-66
2024/04/17 08:55:39;;;;;;;4.60;3.30;;;;;;;17.42;49.77;98582.20;108108;1258;60306;-65
2024/04/17 08:58:06;;;;;;;3.40;3.00;;;;;;;17.26;49.79;98580.65;108078;1253;60364;-66
2024/04/17 09:00:33;;;;;;;3.10;2.40;;;;;;;17.15;49.61;98582.72;108067;1253;73226;-66
2024/04/17 09:03:01;;;;;;;5.20;2.70;;;;;;;17.04;49.46;98586.35;108027;1253;70248;-66
2024/04/17 09:05:29;;;;;;;3.00;2.30;;;;;;;17.15;49.40;98590.84;108062;1253;71817;-66
2024/04/17 09:07:58;;;;;;;2.70;2.30;;;;;;;17.10;49.83;98596.13;108133;1253;60973;-66
2024/04/17 09:10:26;;;;;;;5.00;2.60;;;;;;;17.31;49.73;98594.96;107997;1253;60445;-66
2024/04/17 09:12:54;;;;;;;4.70;3.10;;;;;;;17.15;49.52;98602.39;108021;1253;73933;-66
2024/04/17 09:15:21;;;;;;;4.10;3.40;;;;;;;17.15;49.86;98601.89;108022;1253;70150;-66
2024/04/17 09:17:50;;;;;;;8.60;2.90;;;;;;;17.27;50.10;98601.48;108058;1256;72766;-66
2024/04/17 09:20:17;;;;;;;3.30;2.50;;;;;;;17.34;50.27;98607.77;108083;1253;61234;-66
2024/04/17 09:22:45;;;;;;;5.40;2.80;;;;;;;17.34;50.51;98605.09;108085;1253;61402;-66
2024/04/17 09:25:13;;;;;;;3.90;2.50;;;;;;;17.41;50.51;98601.33;108099;1252;74660;-66
2024/04/17 09:27:41;;;;;;;3.90;2.60;;;;;;;17.31;50.14;98594.92;108185;1253;69261;-65
2024/04/17 09:30:08;;;;;;;6.70;2.60;;;;;;;17.32;50.12;98594.98;108138;1253;72152;-67
2024/04/17 09:32:36;;;;;;;6.00;3.60;;;;;;;17.33;49.62;98596.92;108078;1253;61091;-66
2024/04/17 09:35:08;;;;;;;8.90;5.50;;;;;;;17.29;49.41;98600.46;108084;1253;61074;-65
2024/04/17 09:37:39;;;;;;;17.30;9.10;;;;;;;17.29;50.14;98601.80;107910;1253;74786;-65
2024/04/17 09:40:08;;;;;;;7.50;3.60;;;;;;;17.48;49.99;98602.27;108057;1254;69605;-66
2024/04/17 09:42:37;;;;;;;7.00;3.80;;;;;;;17.60;49.29;98601.05;108004;1254;71757;-65
2024/04/17 09:45:05;;;;;;;6.90;4.90;;;;;;;17.75;49.02;98606.75;108008;1254;62448;-65
2024/04/17 09:47:34;;;;;;;5.10;3.70;;;;;;;17.84;48.95;98610.71;107784;1254;61098;-65
2024/04/17 09:50:02;;;;;;;6.80;4.20;;;;;;;17.91;48.74;98614.46;107938;1254;75133;-65
2024/04/17 09:52:31;;;;;;;5.10;3.10;;;;;;;17.87;48.38;98610.40;107972;1254;70441;-65
2024/04/17 09:54:58;;;;;;;5.10;3.10;;;;;;;17.88;48.61;98604.09;107871;1254;74922;-68
2024/04/17 09:57:25;;;;;;;5.80;3.30;;;;;;;17.97;48.37;98608.02;108087;1254;61147;-66
2024/04/17 09:59:52;;;;;;;5.50;3.60;;;;;;;18.01;48.41;98612.24;107995;1254;61112;-65
2024/04/17 10:02:20;;;;;;;6.60;3.30;;;;;;;18.06;48.68;98616.03;107984;1255;76934;-65
2024/04/17 10:04:49;;;;;;;8.10;4.20;;;;;;;18.09;48.90;98621.60;107860;1254;68854;-66
2024/04/17 10:07:16;;;;;;;6.20;3.20;;;;;;;18.06;48.44;98627.27;107951;1254;71998;-65
2024/04/17 10:09:43;;;;;;;5.90;3.10;;;;;;;18.07;48.34;98625.36;107965;1254;61106;-65
2024/04/17 10:12:11;;;;;;;4.90;2.70;;;;;;;18.13;48.50;98631.21;108056;1254;59150;-64
2024/04/17 10:14:39;;;;;;;4.40;3.00;;;;;;;18.37;48.62;98629.17;107973;1254;74759;-65
2024/04/17 10:17:09;;;;;;;5.00;2.50;;;;;;;18.46;48.85;98638.84;107967;1254;70790;-66
2024/04/17 10:19:56;;;;;;;4.10;2.30;;;;;;;18.48;48.48;98634.55;107898;1256;72913;-65
2024/04/17 10:22:24;;;;;;;6.90;3.30;;;;;;;18.74;47.64;98636.05;107990;1254;61748;-66
2024/04/17 10:24:52;;;;;;;3.90;2.90;;;;;;;18.79;47.34;98638.45;107943;1254;61144;-66
2024/04/17 10:27:21;;;;;;;8.20;3.20;;;;;;;18.89;47.19;98638.52;108041;1254;74768;-66
2024/04/17 10:29:48;;;;;;;4.50;3.20;;;;;;;19.08;47.02;98637.93;107979;1254;72208;-66
2024/04/17 10:32:15;;;;;;;5.60;3.30;;;;;;;19.16;46.88;98631.34;107928;1254;72812;-66
2024/04/17 10:34:53;;;;;;;5.00;3.10;;;;;;;19.20;46.46;98629.69;107981;1254;61092;-66
2024/04/17 10:37:22;;;;;;;5.00;3.30;;;;;;;19.35;46.72;98624.99;108020;1254;61115;-66
2024/04/17 10:39:50;;;;;;;9.10;5.10;;;;;;;19.41;46.84;98623.52;107942;1254;74727;-66
2024/04/17 10:42:18;;;;;;;6.00;3.30;;;;;;;19.53;46.92;98623.66;107852;1260;68983;-66
2024/04/17 10:44:53;;;;;;;4.10;2.90;;;;;;;19.76;45.79;98624.11;108100;1254;72728;-66
2024/04/17 10:47:24;;;;;;;6.50;3.80;;;;;;;19.80;45.38;98618.52;108036;1254;62009;-66
2024/04/17 10:49:59;;;;;;;3.10;2.70;;;;;;;19.98;45.39;98618.73;108071;1254;61115;-66
2024/04/17 10:52:29;;;;;;;4.40;2.80;;;;;;;20.06;45.36;98611.10;107989;1258;74410;-67
2024/04/17 10:55:00;;;;;;;3.60;2.60;;;;;;;20.24;45.61;98608.44;108077;1254;70521;-66
2024/04/17 10:57:28;;;;;;;;;;;;;;;20.38;44.90;98604.89;108052;1258;72840;-66
2024/04/17 10:59:55;;;;;;;6.90;2.70;;;;;;;20.51;44.26;98614.98;107953;1254;61595;-66
2024/04/17 11:02:23;;;;;;;4.50;2.80;;;;;;;20.66;43.76;98623.90;107885;1256;61200;-66
2024/04/17 11:04:50;;;;;;;4.40;3.00;;;;;;;20.62;43.49;98635.57;107911;1254;73776;-66
2024/04/17 11:07:18;;;;;;;2.90;2.50;;;;;;;20.68;43.22;98631.16;107989;1253;69957;-66
2024/04/17 11:09:45;;;;;;;2.90;2.50;;;;;;;20.54;42.62;98629.95;108074;1253;72976;-66
2024/04/17 11:12:14;;;;;;;4.80;2.50;;;;;;;20.52;42.58;98637.17;108060;1253;61302;-65
2024/04/17 11:14:42;;;;;;;3.60;2.90;;;;;;;20.35;42.80;98645.98;108050;1257;60592;-65
2024/04/17 11:17:09;;;;;;;8.10;3.00;;;;;;;20.23;42.08;98644.02;108014;1253;74722;-66
2024/04/17 11:19:37;;;;;;;3.60;2.40;;;;;;;19.92;42.35;98654.90;108034;1254;68990;-66
2024/04/17 11:22:08;;;;;;;4.60;3.20;;;;;;;19.71;42.59;98661.21;107994;1253;72595;-65
2024/04/17 11:24:35;;;;;;;7.30;3.40;;;;;;;19.56;42.93;98658.11;108026;1257;61324;-65
2024/04/17 11:27:09;;;;;;;4.30;2.90;;;;;;;19.24;43.42;98660.86;107987;1253;61245;-65